createdAt,value
2019-05-30T00:02:08.262Z,17.96
2019-05-30T00:04:40.796Z,17.94
2019-05-30T00:07:13.682Z,17.92
2019-05-30T00:09:46.474Z,17.91
2019-05-30T00:12:19.253Z,17.91
2019-05-30T00:14:52.249Z,17.93
2019-05-30T00:17:25.021Z,17.88
2019-05-30T00:19:58.800Z,17.90
2019-05-30T00:22:33.298Z,17.90
2019-05-30T00:25:09.095Z,17.88
2019-05-30T00:27:41.576Z,17.90
2019-05-30T00:30:24.490Z,17.85
2019-05-30T00:32:49.705Z,17.81
2019-05-30T00:35:22.624Z,17.78
2019-05-30T00:37:55.656Z,17.73
2019-05-30T00:40:28.856Z,17.72
2019-05-30T00:43:02.087Z,17.67
2019-05-30T00:45:35.044Z,17.65
2019-05-30T00:48:07.807Z,17.64
2019-05-30T00:50:40.610Z,17.66
2019-05-30T00:53:13.322Z,17.68
2019-05-30T00:55:46.072Z,17.67
2019-05-30T00:58:18.847Z,17.68
2019-05-30T01:00:51.364Z,17.68
2019-05-30T01:03:24.417Z,17.68
2019-05-30T01:05:58.721Z,17.65
2019-05-30T01:08:32.249Z,17.62
2019-05-30T01:11:05.372Z,17.58
2019-05-30T01:13:38.198Z,17.53
2019-05-30T01:16:10.872Z,17.51
2019-05-30T01:18:43.755Z,17.50
2019-05-30T01:21:17.063Z,17.46
2019-05-30T01:23:49.728Z,17.44
2019-05-30T01:26:22.308Z,17.40
2019-05-30T01:28:55.092Z,17.38
2019-05-30T01:31:28.710Z,17.34
2019-05-30T01:34:01.648Z,17.33
2019-05-30T01:36:34.874Z,17.31
2019-05-30T01:39:08.897Z,17.34
2019-05-30T01:41:41.986Z,17.38
2019-05-30T01:44:14.766Z,17.40
2019-05-30T01:46:47.188Z,17.36
2019-05-30T01:49:20.033Z,17.35
2019-05-30T01:51:53.432Z,17.31
2019-05-30T01:54:26.288Z,17.31
2019-05-30T01:56:59.082Z,17.29
2019-05-30T01:59:31.651Z,17.28
2019-05-30T02:02:07.095Z,17.27
2019-05-30T02:04:39.894Z,17.26
2019-05-30T02:07:13.378Z,17.26
2019-05-30T02:09:46.158Z,17.27
2019-05-30T02:12:19.164Z,17.29
2019-05-30T02:14:51.773Z,17.29
2019-05-30T02:17:25.712Z,17.31
2019-05-30T02:19:59.676Z,17.31
2019-05-30T02:22:32.430Z,17.33
2019-05-30T02:25:06.448Z,17.36
2019-05-30T02:27:41.276Z,17.38
2019-05-30T02:30:15.164Z,17.40
2019-05-30T02:32:48.133Z,17.43
2019-05-30T02:35:21.067Z,17.45
2019-05-30T02:37:53.728Z,17.50
2019-05-30T02:40:26.457Z,17.53
2019-05-30T02:43:01.017Z,17.59
2019-05-30T02:45:33.826Z,17.62
2019-05-30T02:48:07.369Z,17.65
2019-05-30T02:50:40.209Z,17.66
2019-05-30T02:53:13.491Z,17.68
2019-05-30T02:55:46.907Z,17.70
2019-05-30T02:58:19.389Z,17.74
2019-05-30T03:00:52.355Z,17.77
2019-05-30T03:03:24.737Z,17.83
2019-05-30T03:05:57.833Z,17.88
2019-05-30T03:08:30.394Z,17.96
2019-05-30T03:11:04.462Z,18.00
2019-05-30T03:13:37.297Z,18.07
2019-05-30T03:16:11.810Z,18.12
2019-05-30T03:18:44.256Z,18.17
2019-05-30T03:21:17.081Z,18.19
2019-05-30T03:23:50.123Z,18.22
2019-05-30T03:26:23.055Z,18.25
2019-05-30T03:28:55.320Z,18.27
2019-05-30T03:31:30.505Z,18.31
2019-05-30T03:34:08.199Z,18.37
2019-05-30T03:36:37.670Z,18.44
2019-05-30T03:39:14.497Z,18.52
2019-05-30T03:41:45.469Z,18.60
2019-05-30T03:44:18.780Z,18.67
2019-05-30T03:46:57.519Z,18.76
2019-05-30T03:49:32.763Z,18.84
2019-05-30T03:52:09.983Z,18.93
2019-05-30T03:54:44.042Z,19.03
2019-05-30T03:57:19.813Z,19.14
2019-05-30T04:00:02.122Z,19.25
2019-05-30T04:02:57.441Z,19.34
2019-05-30T04:05:33.459Z,19.45
2019-05-30T04:08:11.884Z,19.57
2019-05-30T04:10:46.617Z,19.68
2019-05-30T04:13:42.009Z,19.82
2019-05-30T04:16:15.838Z,19.92
2019-05-30T04:18:48.110Z,20.04
2019-05-30T04:21:21.697Z,20.14
2019-05-30T04:23:54.277Z,20.23
2019-05-30T04:26:27.161Z,20.34
2019-05-30T04:28:59.919Z,20.45
2019-05-30T04:31:33.861Z,20.58
2019-05-30T04:34:08.188Z,20.72
2019-05-30T04:36:42.051Z,20.89
2019-05-30T04:39:15.245Z,21.06
2019-05-30T04:41:48.557Z,21.22
2019-05-30T04:44:21.151Z,21.37
2019-05-30T04:46:53.920Z,21.52
2019-05-30T04:49:26.601Z,21.65
2019-05-30T04:51:59.478Z,21.80
2019-05-30T04:54:31.957Z,21.93
2019-05-30T04:57:04.983Z,22.04
2019-05-30T04:59:37.724Z,22.18
2019-05-30T05:02:13.551Z,22.27
2019-05-30T05:04:46.173Z,22.36
2019-05-30T05:07:19.826Z,22.49
2019-05-30T05:09:52.619Z,22.57
2019-05-30T05:12:25.222Z,22.67
2019-05-30T05:14:57.788Z,22.75
2019-05-30T05:17:30.681Z,22.83
2019-05-30T05:20:03.298Z,22.93
2019-05-30T05:22:35.738Z,23.01
2019-05-30T05:25:08.513Z,23.08
2019-05-30T05:27:41.321Z,23.17
2019-05-30T05:30:14.168Z,23.23
2019-05-30T05:32:47.049Z,23.29
2019-05-30T05:35:20.884Z,23.36
2019-05-30T05:37:53.551Z,23.41
2019-05-30T05:40:26.435Z,23.49
2019-05-30T05:42:59.217Z,23.57
2019-05-30T05:45:31.697Z,23.66
2019-05-30T05:48:04.473Z,23.77
2019-05-30T05:50:36.855Z,23.87
2019-05-30T05:53:09.711Z,23.94
2019-05-30T05:55:42.217Z,24.03
2019-05-30T05:58:14.993Z,24.13
2019-05-30T06:00:48.399Z,24.23
2019-05-30T06:03:22.233Z,24.31
2019-05-30T06:05:55.180Z,24.41
2019-05-30T06:08:27.965Z,24.50
2019-05-30T06:11:00.738Z,24.65
2019-05-30T06:13:33.493Z,24.80
2019-05-30T06:16:06.104Z,24.94
2019-05-30T06:18:38.674Z,25.08
2019-05-30T06:21:11.458Z,25.21
2019-05-30T06:23:45.732Z,25.33
2019-05-30T06:26:18.211Z,25.44
2019-05-30T06:28:51.016Z,25.60
2019-05-30T06:31:24.484Z,25.69
2019-05-30T06:33:57.035Z,25.77
2019-05-30T06:36:29.884Z,25.89
2019-05-30T06:39:02.765Z,26.05
2019-05-30T06:41:35.571Z,26.20
2019-05-30T06:44:08.469Z,26.31
2019-05-30T06:46:40.493Z,26.46
2019-05-30T06:49:13.393Z,26.46
2019-05-30T06:51:45.770Z,26.57
2019-05-30T06:54:18.385Z,26.67
2019-05-30T06:56:50.926Z,26.81
2019-05-30T06:59:23.690Z,26.96
2019-05-30T07:01:56.182Z,27.11
2019-05-30T07:04:34.513Z,27.26
2019-05-30T07:07:05.988Z,27.42
2019-05-30T07:09:37.298Z,27.57
2019-05-30T07:12:12.058Z,27.72
2019-05-30T07:14:44.290Z,27.84
2019-05-30T07:17:17.176Z,27.95
2019-05-30T07:19:49.736Z,28.09
2019-05-30T07:22:23.469Z,28.17
2019-05-30T07:24:56.051Z,28.16
2019-05-30T07:27:29.867Z,28.15
2019-05-30T07:30:02.406Z,28.16
2019-05-30T07:32:36.124Z,28.21
2019-05-30T07:35:08.983Z,28.24
2019-05-30T07:37:41.583Z,28.24
2019-05-30T07:40:19.423Z,28.26
2019-05-30T07:42:49.333Z,28.26
2019-05-30T07:45:22.553Z,28.26
2019-05-30T07:47:55.045Z,28.22
2019-05-30T07:50:28.349Z,28.21
2019-05-30T07:53:01.043Z,28.15
2019-05-30T07:55:33.744Z,28.18
2019-05-30T07:58:06.090Z,28.20
2019-05-30T08:00:38.984Z,28.27
2019-05-30T08:03:11.861Z,28.30
2019-05-30T08:05:44.519Z,28.36
2019-05-30T08:08:17.124Z,28.40
2019-05-30T08:10:49.898Z,28.45
2019-05-30T08:13:22.458Z,28.54
2019-05-30T08:15:55.063Z,28.58
2019-05-30T08:18:27.719Z,28.58
2019-05-30T08:21:00.497Z,28.66
2019-05-30T08:23:34.272Z,28.68
2019-05-30T08:26:06.911Z,28.75
2019-05-30T08:28:42.552Z,28.90
2019-05-30T08:31:13.796Z,29.11
2019-05-30T08:33:47.547Z,29.31
2019-05-30T08:36:21.206Z,29.52
2019-05-30T08:38:53.967Z,29.74
2019-05-30T08:41:26.663Z,29.79
2019-05-30T08:43:59.457Z,29.89
2019-05-30T08:46:32.431Z,30.04
2019-05-30T08:49:05.936Z,30.18
2019-05-30T08:51:38.396Z,30.35
2019-05-30T08:54:13.718Z,30.53
2019-05-30T08:56:45.594Z,30.57
2019-05-30T08:59:18.294Z,30.61
2019-05-30T09:01:53.151Z,30.58
2019-05-30T09:04:25.296Z,30.58
2019-05-30T09:06:57.770Z,30.59
2019-05-30T09:09:30.544Z,30.62
2019-05-30T09:12:03.227Z,30.63
2019-05-30T09:14:37.388Z,30.66
2019-05-30T09:17:10.461Z,30.79
2019-05-30T09:19:43.282Z,30.83
2019-05-30T09:22:16.815Z,30.86
2019-05-30T09:24:49.662Z,30.79
2019-05-30T09:27:22.580Z,30.79
2019-05-30T09:29:55.240Z,30.77
2019-05-30T09:32:27.844Z,30.78
2019-05-30T09:35:00.413Z,30.87
2019-05-30T09:37:33.179Z,30.98
2019-05-30T09:40:11.190Z,30.96
2019-05-30T09:42:44.758Z,31.00
2019-05-30T09:45:19.299Z,31.16
2019-05-30T09:47:52.006Z,31.34
2019-05-30T09:50:24.689Z,31.52
2019-05-30T09:52:57.592Z,31.65
2019-05-30T09:55:30.147Z,31.83
2019-05-30T09:58:02.726Z,32.04
2019-05-30T10:00:36.979Z,32.23
2019-05-30T10:03:09.461Z,32.36
2019-05-30T10:05:43.394Z,32.43
2019-05-30T10:08:16.317Z,32.47
2019-05-30T10:10:49.628Z,32.40
2019-05-30T10:13:29.125Z,32.28
2019-05-30T10:16:19.039Z,32.12
2019-05-30T10:22:57.470Z,31.89
2019-05-30T10:25:30.254Z,31.67
2019-05-30T10:28:02.927Z,31.21
2019-05-30T10:30:35.811Z,31.02
2019-05-30T10:33:08.486Z,30.97
2019-05-30T10:35:41.486Z,31.05
2019-05-30T10:50:03.979Z,31.67
2019-05-30T10:53:07.800Z,31.95
2019-05-30T10:55:43.374Z,32.08
2019-05-30T10:58:16.048Z,32.25
2019-05-30T11:00:55.808Z,32.20
2019-05-30T11:03:29.080Z,32.24
2019-05-30T11:06:23.071Z,32.17
2019-05-30T11:08:58.921Z,32.21
2019-05-30T11:11:31.477Z,32.00
2019-05-30T11:14:04.213Z,31.89
2019-05-30T11:16:36.738Z,31.93
2019-05-30T11:19:10.641Z,32.13
2019-05-30T11:21:43.135Z,32.26
2019-05-30T11:24:16.010Z,32.29
2019-05-30T11:26:50.671Z,32.19
2019-05-30T11:29:22.902Z,32.01
2019-05-30T11:31:56.941Z,31.85
2019-05-30T11:34:29.591Z,31.54
2019-05-30T11:37:18.102Z,31.24
2019-05-30T11:39:36.403Z,30.84
2019-05-30T11:42:09.183Z,30.54
2019-05-30T11:44:42.662Z,30.32
2019-05-30T11:47:15.361Z,30.21
2019-05-30T11:49:49.493Z,30.26
2019-05-30T11:52:22.055Z,30.28
2019-05-30T11:54:55.754Z,30.34
2019-05-30T11:57:28.440Z,30.26
2019-05-30T12:00:01.253Z,30.17
2019-05-30T12:02:33.891Z,30.16
2019-05-30T12:05:07.913Z,30.03
2019-05-30T12:07:40.591Z,30.03
2019-05-30T12:10:13.897Z,30.09
2019-05-30T12:12:46.362Z,30.11
2019-05-30T12:15:20.713Z,30.00
2019-05-30T12:17:53.352Z,29.93
2019-05-30T12:20:26.530Z,29.85
2019-05-30T12:23:00.006Z,29.63
2019-05-30T12:25:32.633Z,29.51
2019-05-30T12:28:05.391Z,29.44
2019-05-30T12:30:37.886Z,29.37
2019-05-30T12:33:10.664Z,29.24
2019-05-30T12:35:43.238Z,29.22
2019-05-30T12:38:16.023Z,29.31
2019-05-30T12:40:48.681Z,29.47
2019-05-30T12:51:09.026Z,30.81
2019-05-30T12:53:41.664Z,31.27
2019-05-30T12:56:14.491Z,31.43
2019-05-30T12:58:47.210Z,31.44
2019-05-30T13:01:19.958Z,31.54
2019-05-30T13:03:52.553Z,31.64
2019-05-30T13:06:25.412Z,31.59
2019-05-30T13:08:58.849Z,31.51
2019-05-30T13:11:31.921Z,31.57
2019-05-30T13:14:05.059Z,31.87
2019-05-30T13:16:37.688Z,32.22
2019-05-30T13:19:10.735Z,32.10
2019-05-30T13:21:43.139Z,31.89
2019-05-30T13:24:15.832Z,31.63
2019-05-30T13:26:48.548Z,31.36
2019-05-30T13:29:21.323Z,31.15
2019-05-30T13:31:53.961Z,31.32
2019-05-30T13:34:26.762Z,31.47
2019-05-30T13:36:59.239Z,31.53
2019-05-30T13:39:32.017Z,31.14
2019-05-30T13:42:05.864Z,30.91
2019-05-30T13:44:38.499Z,30.60
2019-05-30T13:47:11.383Z,30.23
2019-05-30T13:49:44.150Z,30.00
2019-05-30T13:52:16.943Z,29.69
2019-05-30T13:54:50.032Z,29.26
2019-05-30T13:57:23.103Z,28.95
2019-05-30T13:59:55.604Z,28.66
2019-05-30T14:02:28.392Z,28.45
2019-05-30T14:05:02.250Z,28.30
2019-05-30T14:07:34.767Z,28.17
2019-05-30T14:10:10.510Z,28.13
2019-05-30T14:12:43.305Z,28.13
2019-05-30T14:15:16.298Z,28.12
2019-05-30T14:17:48.871Z,28.10
2019-05-30T14:20:21.537Z,28.03
2019-05-30T14:22:54.433Z,28.02
2019-05-30T14:25:27.111Z,28.03
2019-05-30T14:27:59.867Z,28.05
2019-05-30T14:30:32.976Z,28.04
2019-05-30T14:33:06.090Z,28.08
2019-05-30T14:35:38.546Z,28.17
2019-05-30T14:38:11.325Z,28.21
2019-05-30T14:40:43.906Z,28.29
2019-05-30T14:43:16.793Z,28.29
2019-05-30T14:45:49.479Z,28.31
2019-05-30T14:48:22.054Z,28.26
2019-05-30T14:50:54.829Z,28.26
2019-05-30T14:53:27.718Z,28.19
2019-05-30T14:56:00.587Z,28.17
2019-05-30T14:58:33.290Z,28.19
2019-05-30T15:01:07.026Z,28.22
2019-05-30T15:03:39.847Z,28.30
2019-05-30T15:06:15.382Z,28.41
2019-05-30T15:08:46.743Z,28.48
2019-05-30T15:11:19.550Z,28.55
2019-05-30T15:13:52.225Z,28.58
2019-05-30T15:16:24.902Z,28.57
2019-05-30T15:18:57.560Z,28.53
2019-05-30T15:21:30.268Z,28.43
2019-05-30T15:24:05.658Z,28.38
2019-05-30T15:26:38.295Z,28.39
2019-05-30T15:29:12.170Z,28.40
2019-05-30T15:31:44.713Z,28.31
2019-05-30T15:34:17.250Z,28.32
2019-05-30T15:36:49.825Z,28.48
2019-05-30T15:39:32.418Z,29.33
2019-05-30T15:41:56.607Z,30.62
2019-05-30T15:44:29.173Z,31.76
2019-05-30T15:47:02.085Z,32.12
2019-05-30T15:49:34.551Z,32.59
2019-05-30T15:52:06.957Z,33.36
2019-05-30T15:54:39.289Z,33.97
2019-05-30T15:57:13.263Z,34.66
2019-05-30T15:59:45.870Z,35.00
2019-05-30T16:02:20.405Z,35.21
2019-05-30T16:04:52.933Z,35.31
2019-05-30T16:07:26.372Z,35.34
2019-05-30T16:09:59.043Z,35.36
2019-05-30T16:12:31.845Z,35.25
2019-05-30T16:15:08.008Z,35.14
2019-05-30T16:17:40.365Z,34.97
2019-05-30T16:20:15.848Z,34.64
2019-05-30T16:22:48.724Z,34.09
2019-05-30T16:25:21.768Z,33.42
2019-05-30T16:27:54.481Z,32.79
2019-05-30T16:30:27.993Z,32.22
2019-05-30T16:33:00.961Z,31.56
2019-05-30T16:35:34.476Z,31.06
2019-05-30T16:38:07.233Z,30.71
2019-05-30T16:40:39.721Z,29.76
2019-05-30T16:43:12.502Z,29.76
2019-05-30T16:45:45.184Z,29.25
2019-05-30T16:48:18.361Z,28.75
2019-05-30T16:57:42.100Z,27.49
2019-05-30T17:00:15.953Z,27.10
2019-05-30T17:02:52.056Z,26.79
2019-05-30T17:05:24.844Z,26.53
2019-05-30T17:08:00.388Z,26.27
2019-05-30T17:10:33.546Z,26.06
2019-05-30T17:13:06.052Z,25.90
2019-05-30T17:15:38.940Z,25.74
2019-05-30T17:18:11.532Z,25.59
2019-05-30T17:20:44.512Z,25.40
2019-05-30T17:23:17.183Z,25.18
2019-05-30T17:25:50.067Z,24.94
2019-05-30T17:28:22.953Z,24.76
2019-05-30T17:30:55.616Z,24.62
2019-05-30T17:33:28.545Z,24.49
2019-05-30T17:36:01.196Z,24.38
2019-05-30T17:38:33.983Z,24.29
2019-05-30T17:41:08.094Z,24.19
2019-05-30T17:43:40.761Z,24.06
2019-05-30T17:46:13.458Z,23.95
2019-05-30T17:48:45.910Z,23.84
2019-05-30T17:51:19.691Z,23.72
2019-05-30T17:53:53.335Z,23.62
2019-05-30T17:56:26.199Z,23.51
2019-05-30T17:58:58.799Z,23.39
2019-05-30T18:01:31.681Z,23.30
2019-05-30T18:04:04.878Z,23.19
2019-05-30T18:06:38.754Z,23.06
2019-05-30T18:09:13.733Z,23.01
2019-05-30T18:11:54.908Z,22.94
2019-05-30T18:14:29.199Z,22.85
2019-05-30T18:17:01.987Z,22.73
2019-05-30T18:19:35.088Z,22.63
2019-05-30T18:22:08.392Z,22.53
2019-05-30T18:24:41.677Z,22.45
2019-05-30T18:27:15.897Z,22.38
2019-05-30T18:29:48.354Z,22.31
2019-05-30T18:32:21.978Z,22.29
2019-05-30T18:34:57.367Z,22.27
2019-05-30T18:37:28.766Z,22.21
2019-05-30T18:40:01.612Z,22.17
2019-05-30T18:42:35.132Z,22.09
2019-05-30T18:45:12.130Z,22.05
2019-05-30T18:47:45.634Z,22.02
2019-05-30T18:50:18.635Z,22.03
2019-05-30T18:52:51.792Z,22.02
2019-05-30T18:55:24.615Z,22.00
2019-05-30T18:57:57.067Z,22.01
2019-05-30T19:00:30.974Z,22.00
2019-05-30T19:03:04.792Z,21.92
2019-05-30T19:05:37.453Z,21.85
2019-05-30T19:08:12.124Z,21.80
2019-05-30T19:10:44.564Z,21.75
2019-05-30T19:13:17.185Z,21.71
2019-05-30T19:15:52.684Z,21.56
2019-05-30T19:18:25.482Z,21.43
2019-05-30T19:20:58.133Z,21.35
2019-05-30T19:23:34.330Z,21.30
2019-05-30T19:26:08.304Z,21.26
2019-05-30T19:28:41.348Z,21.19
2019-05-30T19:31:14.814Z,21.15
2019-05-30T19:33:47.903Z,21.11
2019-05-30T19:36:20.591Z,21.12
2019-05-30T19:38:54.775Z,21.11
2019-05-30T19:41:44.441Z,21.11
2019-05-30T19:44:02.188Z,21.12
2019-05-30T19:46:34.765Z,21.15
2019-05-30T19:49:08.649Z,21.12
2019-05-30T19:51:40.511Z,21.11
2019-05-30T19:54:16.306Z,21.05
2019-05-30T19:56:49.586Z,21.01
2019-05-30T19:59:22.033Z,20.97
2019-05-30T20:01:54.957Z,20.92
2019-05-30T20:04:32.227Z,20.88
2019-05-30T20:07:08.282Z,20.83
2019-05-30T20:09:41.092Z,20.73
2019-05-30T20:12:13.869Z,20.70
2019-05-30T20:14:50.318Z,20.65
2019-05-30T20:17:22.790Z,20.65
2019-05-30T20:19:55.369Z,20.62
2019-05-30T20:22:28.368Z,20.51
2019-05-30T20:25:01.363Z,20.38
2019-05-30T20:27:34.664Z,20.29
2019-05-30T20:30:11.182Z,20.15
2019-05-30T20:32:43.806Z,20.01
2019-05-30T20:35:17.013Z,19.89
2019-05-30T20:37:49.569Z,19.76
2019-05-30T20:40:22.515Z,19.63
2019-05-30T20:42:55.546Z,19.59
2019-05-30T20:45:28.743Z,19.64
2019-05-30T20:48:01.626Z,19.60
2019-05-30T20:50:35.040Z,19.59
2019-05-30T20:53:07.703Z,19.63
2019-05-30T20:55:42.445Z,19.67
2019-05-30T20:58:14.989Z,19.69
2019-05-30T21:00:47.928Z,19.69
2019-05-30T21:03:21.500Z,19.68
2019-05-30T21:05:55.473Z,19.67
2019-05-30T21:08:28.078Z,19.67
2019-05-30T21:11:03.228Z,19.65
2019-05-30T21:13:36.259Z,19.63
2019-05-30T21:16:13.420Z,19.62
2019-05-30T21:18:47.035Z,19.62
2019-05-30T21:21:19.565Z,19.61
2019-05-30T21:23:52.451Z,19.54
2019-05-30T21:26:25.336Z,19.44
2019-05-30T21:28:58.219Z,19.40
2019-05-30T21:31:31.032Z,19.37
2019-05-30T21:34:04.299Z,19.38
2019-05-30T21:36:37.705Z,19.38
2019-05-30T21:39:11.371Z,19.36
2019-05-30T21:41:44.544Z,19.31
2019-05-30T21:44:18.132Z,19.24
2019-05-30T21:46:50.577Z,19.15
2019-05-30T21:49:23.349Z,19.05
2019-05-30T21:51:56.105Z,18.95
2019-05-30T21:54:29.030Z,18.82
2019-05-30T21:57:01.670Z,18.69
2019-05-30T21:59:34.253Z,18.61
2019-05-30T22:02:07.338Z,18.61
2019-05-30T22:04:40.481Z,18.54
2019-05-30T22:07:13.132Z,18.46
2019-05-30T22:09:45.956Z,18.43
2019-05-30T22:12:18.877Z,18.47
2019-05-30T22:14:52.008Z,18.55
2019-05-30T22:17:24.545Z,18.48
2019-05-30T22:19:57.654Z,18.35
2019-05-30T22:22:30.543Z,18.25
2019-05-30T22:25:03.521Z,18.17
2019-05-30T22:27:35.996Z,18.16
2019-05-30T22:30:09.497Z,18.17
2019-05-30T22:32:42.622Z,18.23
2019-05-30T22:35:15.539Z,18.24
2019-05-30T22:37:51.048Z,18.15
2019-05-30T22:40:24.533Z,18.08
2019-05-30T22:42:57.200Z,18.10
2019-05-30T22:45:29.772Z,18.16
2019-05-30T22:48:02.758Z,18.08
2019-05-30T22:50:35.633Z,18.01
2019-05-30T22:53:08.103Z,18.03
2019-05-30T22:55:40.830Z,18.09
2019-05-30T22:58:13.586Z,18.14
2019-05-30T23:00:46.350Z,18.19
2019-05-30T23:03:19.059Z,18.22
2019-05-30T23:05:51.729Z,18.23
2019-05-30T23:08:24.512Z,18.23
2019-05-30T23:10:57.273Z,18.21
2019-05-30T23:13:39.980Z,18.21
2019-05-30T23:16:04.292Z,18.19
2019-05-30T23:18:36.867Z,18.17
2019-05-30T23:21:09.546Z,18.14
2019-05-30T23:23:42.119Z,18.13
2019-05-30T23:26:15.107Z,18.12
2019-05-30T23:28:47.791Z,18.10
2019-05-30T23:31:20.283Z,18.04
2019-05-30T23:33:52.840Z,18.00
2019-05-30T23:36:25.604Z,18.00
2019-05-30T23:38:58.915Z,18.00
2019-05-30T23:41:31.579Z,18.00
2019-05-30T23:44:11.136Z,17.99
2019-05-30T23:46:38.550Z,17.97
2019-05-30T23:49:11.069Z,17.91
2019-05-30T23:51:43.750Z,17.85
2019-05-30T23:54:16.343Z,17.74
2019-05-30T23:56:50.395Z,17.73
2019-05-30T23:59:23.203Z,17.69
